Ana Sayfa
METAR-TAF:

METAR-TAF

Havaalanları :

Corsicana Municipal Airport (C. David Campbell Field)

Corsicana, Teksas, Amerika Birleşik Devletleri

Enlem: 32-01-52N, Boylam: 096-23-56W, yükseklik: 136 m

Güncel hava durumu gözlemi

Rapor saat 04:53 UTC de 1 saat ve 4 dakika önce yapıldı.
Rüzgar kuzeydan 18 kt ve 26 kt'a kadar ani rüzgarlar
Sıcaklık 9°C
Nem 66%
Basınç 1017 hPa
Görüş mesafesi: 16.1 km
7000 ft yükseklikte çok bulutlu

METAR: KCRS 100453Z AUTO 36018G26KT 10SM OVC070 09/03 A3004 RMK AO2 PK WND 36026/0451 SLP170 T00940033

Saat: 23:57 (05:57 UTC)


TAF: eksik

4.000'den fazla havaalanı için hava durumu gözlemleri ve tahminleri (METAR ve TAF raporları).

Kullanılabilir istasyonlar harita üzerinde sarı ve kırmızı noktalarla gösterilir.

İstasyonun adını görmek için fareyi noktanın üzerinde gezdirin.

Sonrasında hava gözlem ve tahminlerini görmek için tıklayın.

Haritayı değiştirmek için: yaklaştırmak için siyah artı işaretli yeşil düğmeye ve uzaklaştırmak için de eksi işaretli düğmeye hızla tıklayın; bitişik haritalar için yeşil okları kullanın.


METAR-TAF: